Terminal Aerodrome Forecast
Issued by NWS Pittsburgh, PA

Current Version | Previous Version | Graphics & Text | Print | Product List | Glossary On
Versions: 1 2 3 4 5 6 7 8 9 10 11 12 13 14 15 16 17 18 19 20 21 22 23 24 25 26 27 28 29 30 31 32 33 34 35 36 37
000
FTUS41 KPBZ 160527
TAFPIT
TAF
KPIT 160527Z 1606/1712 31012G22KT 5SM -RA OVC015
     FM160900 26010KT 3SM -RA OVC008
     FM161200 01010KT 4SM -RA OVC008
     FM161600 31012G25KT 6SM -RASN OVC010
     FM162000 33013G23KT P6SM BKN035
     FM170000 33012KT P6SM BKN035=

USA.gov is the U.S. government's official web portal to all federal, state and local government web resources and services.